Observation data for Sundown on 08/12/2019      Previous  Date       Current Mesonet Observations  Soil Data  Daily Summary Page  Observations in Plain Language
KSDS 120500Z 08006KT 22/13 A3003 RMK A01 T02230133  RH  059%=      5-min Rain = 0
KSDS 120505Z 09007KT 22/13 A3003 RMK A01 T02240133  RH  059%=      5-min Rain = 0
KSDS 120510Z 08006KT 22/13 A3003 RMK A01 T02230133  RH  059%=      5-min Rain = 0
KSDS 120515Z 28008KT 22/13 A3004 RMK A01 T02220134  RH  060%=      5-min Rain = 0
KSDS 120520Z 28005G10KT 23/13 A3005 RMK A01 T02260133  RH  058%=      5-min Rain = 0
KSDS 120525Z 08004KT 24/13 A3004 RMK A01 T02380131  RH  053%=      5-min Rain = 0
KSDS 120530Z 04004KT 24/13 A3004 RMK A01 T02350132  RH  054%=      5-min Rain = 0
KSDS 120535Z 31005KT 23/13 A3004 RMK A01 T02340132  RH  055%=      5-min Rain = 0
KSDS 120540Z 00004KT 24/13 A3005 RMK A01 T02360132  RH  054%=      5-min Rain = 0
KSDS 120545Z 06006KT 23/13 A3005 RMK A01 T02340132  RH  055%=      5-min Rain = 0
KSDS 120550Z 07007KT 23/13 A3005 RMK A01 T02340132  RH  055%=      5-min Rain = 0
KSDS 120555Z 04006KT 23/13 A3005 RMK A01 T02320133  RH  056%=      5-min Rain = 0
KSDS 120600Z 03007KT 23/13 A3005 RMK A01 T02290133  RH  057%=      5-min Rain = 0
KSDS 120605Z 03007KT 23/13 A3005 RMK A01 T02290133  RH  057%=      5-min Rain = 0
KSDS 120610Z 03007KT 23/13 A3005 RMK A01 T02300133  RH  057%=      5-min Rain = 0
KSDS 120615Z 05005KT 23/13 A3005 RMK A01 T02290134  RH  057%=      5-min Rain = 0
KSDS 120620Z 04006KT 23/13 A3005 RMK A01 T02280134  RH  058%=      5-min Rain = 0
KSDS 120625Z 02006KT 23/13 A3005 RMK A01 T02280133  RH  057%=      5-min Rain = 0
KSDS 120630Z 11002KT 23/13 A3005 RMK A01 T02280133  RH  057%=      5-min Rain = 0
KSDS 120635Z 02003KT 23/13 A3005 RMK A01 T02300132  RH  056%=      5-min Rain = 0
KSDS 120640Z 03006KT 23/13 A3005 RMK A01 T02320133  RH  056%=      5-min Rain = 0
KSDS 120645Z 03007KT 23/13 A3005 RMK A01 T02280134  RH  058%=      5-min Rain = 0
KSDS 120650Z 03007KT 23/13 A3004 RMK A01 T02290134  RH  057%=      5-min Rain = 0
KSDS 120655Z 03007KT 23/13 A3004 RMK A01 T02310133  RH  056%=      5-min Rain = 0
KSDS 120700Z 03006KT 23/13 A3004 RMK A01 T02330133  RH  056%=      5-min Rain = 0
KSDS 120705Z 04008KT 23/13 A3003 RMK A01 T02310134  RH  057%=      5-min Rain = 0
KSDS 120710Z 05008KT 23/13 A3003 RMK A01 T02340133  RH  055%=      5-min Rain = 0
KSDS 120715Z 05007KT 23/13 A3003 RMK A01 T02340133  RH  055%=      5-min Rain = 0
KSDS 120720Z 05006KT 23/13 A3004 RMK A01 T02330133  RH  056%=      5-min Rain = 0
KSDS 120725Z 05007KT 23/13 A3003 RMK A01 T02310133  RH  056%=      5-min Rain = 0
KSDS 120730Z 04006KT 23/13 A3003 RMK A01 T02280133  RH  057%=      5-min Rain = 0
KSDS 120735Z 03006KT 23/13 A3003 RMK A01 T02250134  RH  058%=      5-min Rain = 0
KSDS 120740Z 03006KT 22/13 A3003 RMK A01 T02220134  RH  060%=      5-min Rain = 0
KSDS 120745Z 04006KT 22/13 A3003 RMK A01 T02210134  RH  060%=      5-min Rain = 0
KSDS 120750Z 04005KT 22/13 A3002 RMK A01 T02200134  RH  061%=      5-min Rain = 0
KSDS 120755Z 04005KT 22/14 A3002 RMK A01 T02170135  RH  062%=      5-min Rain = 0
KSDS 120800Z 04005KT 21/14 A3002 RMK A01 T02140135  RH  063%=      5-min Rain = 0
KSDS 120805Z 05006KT 22/13 A3002 RMK A01 T02150134  RH  062%=      5-min Rain = 0
KSDS 120810Z 06007KT 22/13 A3002 RMK A01 T02170134  RH  062%=      5-min Rain = 0
KSDS 120815Z 06006KT 22/13 A3002 RMK A01 T02180134  RH  061%=      5-min Rain = 0
KSDS 120820Z 06006KT 22/13 A3002 RMK A01 T02180134  RH  061%=      5-min Rain = 0
KSDS 120825Z 06007KT 22/13 A3002 RMK A01 T02160134  RH  062%=      5-min Rain = 0
KSDS 120830Z 06006KT 22/13 A3002 RMK A01 T02160134  RH  062%=      5-min Rain = 0
KSDS 120835Z 06006KT 22/13 A3001 RMK A01 T02150134  RH  062%=      5-min Rain = 0
KSDS 120840Z 06006KT 21/13 A3001 RMK A01 T02140134  RH  063%=      5-min Rain = 0
KSDS 120845Z 06006KT 21/13 A3001 RMK A01 T02140133  RH  063%=      5-min Rain = 0
KSDS 120850Z 07005KT 21/13 A3001 RMK A01 T02110134  RH  064%=      5-min Rain = 0
KSDS 120855Z 08004KT 21/13 A3001 RMK A01 T02070134  RH  065%=      5-min Rain = 0
KSDS 120900Z 09005KT 21/13 A3001 RMK A01 T02060134  RH  066%=      5-min Rain = 0
KSDS 120905Z 10004KT 20/13 A3001 RMK A01 T02040134  RH  067%=      5-min Rain = 0
KSDS 120910Z 09004KT 20/13 A3001 RMK A01 T02030134  RH  067%=      5-min Rain = 0
KSDS 120915Z 09004KT 20/13 A3002 RMK A01 T02040134  RH  067%=      5-min Rain = 0
KSDS 120920Z 09006KT 20/13 A3001 RMK A01 T02040134  RH  067%=      5-min Rain = 0
KSDS 120925Z 09006KT 20/13 A3001 RMK A01 T02030134  RH  068%=      5-min Rain = 0
KSDS 120930Z 09007KT 20/14 A3001 RMK A01 T02040135  RH  067%=      5-min Rain = 0
KSDS 120935Z 09006KT 20/14 A3001 RMK A01 T02040135  RH  067%=      5-min Rain = 0
KSDS 120940Z 09007KT 20/14 A3001 RMK A01 T02030135  RH  068%=      5-min Rain = 0
KSDS 120945Z 09006KT 20/14 A3001 RMK A01 T02040135  RH  067%=      5-min Rain = 0
KSDS 120950Z 09006KT 20/14 A3001 RMK A01 T02040135  RH  067%=      5-min Rain = 0
KSDS 120955Z 10006KT 20/14 A3001 RMK A01 T02020136  RH  068%=      5-min Rain = 0
KSDS 121000Z 10005KT 20/14 A3001 RMK A01 T02000135  RH  069%=      5-min Rain = 0
KSDS 121005Z 10005KT 20/14 A3001 RMK A01 T01980136  RH  070%=      5-min Rain = 0
KSDS 121010Z 11006KT 20/14 A3001 RMK A01 T01960136  RH  071%=      5-min Rain = 0
KSDS 121015Z 11009KT 19/14 A3001 RMK A01 T01940137  RH  072%=      5-min Rain = 0
KSDS 121020Z 11009KT 20/14 A3001 RMK A01 T01980137  RH  071%=      5-min Rain = 0
KSDS 121025Z 11008KT 20/14 A3001 RMK A01 T02010137  RH  069%=      5-min Rain = 0
KSDS 121030Z 11006KT 20/14 A3001 RMK A01 T02020137  RH  069%=      5-min Rain = 0
KSDS 121035Z 11006KT 20/14 A3001 RMK A01 T02010137  RH  069%=      5-min Rain = 0
KSDS 121040Z 11005KT 20/14 A3001 RMK A01 T01990137  RH  070%=      5-min Rain = 0
KSDS 121045Z 12006KT 20/14 A3001 RMK A01 T01970137  RH  071%=      5-min Rain = 0
KSDS 121050Z 12006KT 20/14 A3001 RMK A01 T01950138  RH  072%=      5-min Rain = 0
KSDS 121055Z 12006KT 20/14 A3001 RMK A01 T01950138  RH  073%=      5-min Rain = 0
KSDS 121100Z 12006KT 20/14 A3001 RMK A01 T01950138  RH  072%=      5-min Rain = 0
KSDS 121105Z 12006KT 20/14 A3001 RMK A01 T01960137  RH  072%=      5-min Rain = 0
KSDS 121110Z 12006KT 20/14 A3001 RMK A01 T01960138  RH  072%=      5-min Rain = 0
KSDS 121115Z 12006KT 20/14 A3001 RMK A01 T01950137  RH  072%=      5-min Rain = 0
KSDS 121120Z 13006KT 19/14 A3001 RMK A01 T01940137  RH  073%=      5-min Rain = 0
KSDS 121125Z 12006KT 19/14 A3001 RMK A01 T01920137  RH  074%=      5-min Rain = 0
KSDS 121130Z 12006KT 19/14 A3002 RMK A01 T01910137  RH  074%=      5-min Rain = 0
KSDS 121135Z 12006KT 19/14 A3002 RMK A01 T01910137  RH  074%=      5-min Rain = 0
KSDS 121140Z 12006KT 19/14 A3002 RMK A01 T01900137  RH  074%=      5-min Rain = 0
KSDS 121145Z 12007KT 19/14 A3002 RMK A01 T01890137  RH  075%=      5-min Rain = 0
KSDS 121150Z 13006KT 19/14 A3002 RMK A01 T01880137  RH  075%=      5-min Rain = 0
KSDS 121155Z 13006KT 19/14 A3002 RMK A01 T01870137  RH  076%=      5-min Rain = 0
KSDS 121200Z 14006KT 19/14 A3002 RMK A01 T01860137  RH  076%=      5-min Rain = 0
KSDS 121205Z 14006KT 19/14 A3002 RMK A01 T01860137  RH  077%=      5-min Rain = 0
KSDS 121210Z 14006KT 19/14 A3002 RMK A01 T01860138  RH  076%=      5-min Rain = 0
KSDS 121215Z 15006KT 19/14 A3002 RMK A01 T01870138  RH  076%=      5-min Rain = 0
KSDS 121220Z 15006KT 19/14 A3003 RMK A01 T01870137  RH  076%=      5-min Rain = 0
KSDS 121225Z 15006KT 19/14 A3002 RMK A01 T01880137  RH  075%=      5-min Rain = 0
KSDS 121230Z 15006KT 19/14 A3002 RMK A01 T01900137  RH  075%=      5-min Rain = 0
KSDS 121235Z 15006KT 19/14 A3002 RMK A01 T01910138  RH  074%=      5-min Rain = 0
KSDS 121240Z 16006KT 19/14 A3003 RMK A01 T01930139  RH  074%=      5-min Rain = 0
KSDS 121245Z 17006KT 20/14 A3003 RMK A01 T01970140  RH  073%=      5-min Rain = 0
KSDS 121250Z 17005KT 20/14 A3003 RMK A01 T02010141  RH  071%=      5-min Rain = 0
KSDS 121255Z 16005KT 21/14 A3003 RMK A01 T02070142  RH  069%=      5-min Rain = 0
KSDS 121300Z 16005KT 21/14 A3003 RMK A01 T02110143  RH  068%=      5-min Rain = 0
KSDS 121305Z 16005KT 22/14 A3003 RMK A01 T02150143  RH  066%=      5-min Rain = 0
KSDS 121310Z 15005KT 22/14 A3003 RMK A01 T02190144  RH  065%=      5-min Rain = 0
KSDS 121315Z 15005KT 23/14 A3003 RMK A01 T02250143  RH  063%=      5-min Rain = 0
KSDS 121320Z 15005KT 23/14 A3003 RMK A01 T02300143  RH  061%=      5-min Rain = 0
KSDS 121325Z 15006KT 24/14 A3003 RMK A01 T02360144  RH  059%=      5-min Rain = 0
KSDS 121330Z 16006KT 24/14 A3003 RMK A01 T02410144  RH  057%=      5-min Rain = 0
KSDS 121335Z 16006KT 25/15 A3003 RMK A01 T02450145  RH  056%=      5-min Rain = 0
KSDS 121340Z 17006KT 25/15 A3003 RMK A01 T02490145  RH  055%=      5-min Rain = 0
KSDS 121345Z 16008KT 25/15 A3003 RMK A01 T02540145  RH  053%=      5-min Rain = 0
KSDS 121350Z 17008KT 26/15 A3004 RMK A01 T02570145  RH  052%=      5-min Rain = 0
KSDS 121355Z 18009KT 26/15 A3004 RMK A01 T02610145  RH  051%=      5-min Rain = 0
KSDS 121400Z 18010KT 27/15 A3004 RMK A01 T02650145  RH  050%=      5-min Rain = 0
KSDS 121405Z 18009KT 27/14 A3004 RMK A01 T02670144  RH  049%=      5-min Rain = 0
KSDS 121410Z 18010KT 27/14 A3003 RMK A01 T02710144  RH  048%=      5-min Rain = 0
KSDS 121415Z 18011KT 27/14 A3003 RMK A01 T02730143  RH  047%=      5-min Rain = 0
KSDS 121420Z 18011KT 27/14 A3003 RMK A01 T02730141  RH  046%=      5-min Rain = 0
KSDS 121425Z 18011KT 28/14 A3003 RMK A01 T02750142  RH  046%=      5-min Rain = 0
KSDS 121430Z 19011KT 28/14 A3003 RMK A01 T02780142  RH  045%=      5-min Rain = 0
KSDS 121435Z 19011KT 28/14 A3003 RMK A01 T02790142  RH  045%=      5-min Rain = 0
KSDS 121440Z 18012KT 28/14 A3003 RMK A01 T02800142  RH  045%=      5-min Rain = 0
KSDS 121445Z 19010G15KT 28/14 A3003 RMK A01 T02820144  RH  045%=      5-min Rain = 0
KSDS 121450Z 19011KT 28/14 A3003 RMK A01 T02840144  RH  044%=      5-min Rain = 0
KSDS 121455Z 18011KT 29/15 A3003 RMK A01 T02850145  RH  044%=      5-min Rain = 0
KSDS 121500Z 19011KT 29/15 A3003 RMK A01 T02880145  RH  043%=      5-min Rain = 0
KSDS 121505Z 19011KT 29/14 A3003 RMK A01 T02900143  RH  042%=      5-min Rain = 0
KSDS 121510Z 20010KT 29/14 A3003 RMK A01 T02920144  RH  042%=      5-min Rain = 0
KSDS 121515Z 20011KT 29/14 A3003 RMK A01 T02920144  RH  042%=      5-min Rain = 0
KSDS 121520Z 19010KT 30/15 A3003 RMK A01 T02980145  RH  041%=      5-min Rain = 0
KSDS 121525Z 20009KT 30/15 A3003 RMK A01 T02970145  RH  041%=      5-min Rain = 0
KSDS 121530Z 20010KT 30/15 A3002 RMK A01 T03000145  RH  041%=      5-min Rain = 0
KSDS 121535Z 20010KT 30/14 A3002 RMK A01 T03000144  RH  040%=      5-min Rain = 0
KSDS 121540Z 20010KT 31/15 A3002 RMK A01 T03070146  RH  039%=      5-min Rain = 0
KSDS 121545Z 20011KT 31/14 A3002 RMK A01 T03050143  RH  039%=      5-min Rain = 0
KSDS 121550Z 20010G15KT 31/14 A3002 RMK A01 T03070144  RH  039%=      5-min Rain = 0
KSDS 121555Z 21011KT 31/14 A3003 RMK A01 T03100143  RH  038%=      5-min Rain = 0
KSDS 121600Z 21011KT 31/14 A3003 RMK A01 T03100143  RH  038%=      5-min Rain = 0
KSDS 121605Z 21010KT 31/14 A3002 RMK A01 T03140144  RH  037%=      5-min Rain = 0
KSDS 121610Z 21011KT 31/14 A3002 RMK A01 T03130141  RH  037%=      5-min Rain = 0
KSDS 121615Z 21011KT 32/14 A3002 RMK A01 T03150143  RH  037%=      5-min Rain = 0
KSDS 121620Z 21011KT 32/14 A3002 RMK A01 T03200143  RH  036%=      5-min Rain = 0
KSDS 121625Z 23009KT 32/14 A3002 RMK A01 T03230142  RH  035%=      5-min Rain = 0
KSDS 121630Z 24010KT 32/14 A3002 RMK A01 T03210140  RH  035%=      5-min Rain = 0
KSDS 121635Z 22010KT 32/14 A3002 RMK A01 T03230137  RH  034%=      5-min Rain = 0
KSDS 121640Z 23010KT 32/14 A3002 RMK A01 T03240137  RH  034%=      5-min Rain = 0
KSDS 121645Z 21008G15KT 33/14 A3002 RMK A01 T03270139  RH  034%=      5-min Rain = 0
KSDS 121650Z 20009G14KT 33/14 A3002 RMK A01 T03270138  RH  033%=      5-min Rain = 0
KSDS 121655Z 23009KT 33/14 A3002 RMK A01 T03300136  RH  032%=      5-min Rain = 0
KSDS 121700Z 23010KT 33/14 A3002 RMK A01 T03320136  RH  032%=      5-min Rain = 0
KSDS 121705Z 22009KT 33/13 A3002 RMK A01 T03310132  RH  031%=      5-min Rain = 0
KSDS 121710Z 23008KT 33/13 A3002 RMK A01 T03300134  RH  032%=      5-min Rain = 0
KSDS 121715Z 22009KT 34/13 A3002 RMK A01 T03350134  RH  031%=      5-min Rain = 0
KSDS 121720Z 23010KT 34/13 A3002 RMK A01 T03370134  RH  031%=      5-min Rain = 0
KSDS 121725Z 22010G15KT 33/13 A3001 RMK A01 T03330131  RH  031%=      5-min Rain = 0
KSDS 121730Z 21009KT 34/13 A3001 RMK A01 T03360134  RH  031%=      5-min Rain = 0
KSDS 121735Z 23011KT 34/14 A3001 RMK A01 T03400135  RH  030%=      5-min Rain = 0
KSDS 121740Z 24010KT 34/13 A3001 RMK A01 T03390131  RH  030%=      5-min Rain = 0
KSDS 121745Z 25011KT 34/13 A3001 RMK A01 T03390134  RH  030%=      5-min Rain = 0
KSDS 121750Z 23012G17KT 34/13 A3001 RMK A01 T03390133  RH  030%=      5-min Rain = 0
KSDS 121755Z 24008G13KT 34/13 A3001 RMK A01 T03400133  RH  030%=      5-min Rain = 0
KSDS 121800Z 22009G14KT 35/13 A3001 RMK A01 T03450134  RH  029%=      5-min Rain = 0
KSDS 121805Z 23011G16KT 34/13 A30 RMK A01 T03420128  RH  029%=      5-min Rain = 0
KSDS 121810Z 23011G17KT 35/13 A30 RMK A01 T03450132  RH  029%=      5-min Rain = 0
KSDS 121815Z 24010KT 35/13 A30 RMK A01 T03480131  RH  028%=      5-min Rain = 0
KSDS 121820Z 22012G17KT 35/13 A30 RMK A01 T03460129  RH  028%=      5-min Rain = 0
KSDS 121825Z 22009G15KT 35/13 A30 RMK A01 T03450130  RH  028%=      5-min Rain = 0
KSDS 121830Z 25012KT 35/13 A30 RMK A01 T03470128  RH  028%=      5-min Rain = 0
KSDS 121835Z 24011KT 35/13 A30 RMK A01 T03490127  RH  027%=      5-min Rain = 0
KSDS 121840Z 22009G17KT 35/13 A30 RMK A01 T03480130  RH  028%=      5-min Rain = 0
KSDS 121845Z 22013KT 35/13 A30 RMK A01 T03500126  RH  027%=      5-min Rain = 0
KSDS 121850Z 24007G14KT 35/13 A30 RMK A01 T03480128  RH  028%=      5-min Rain = 0
KSDS 121855Z 20006KT 35/13 A2999 RMK A01 T03500128  RH  027%=      5-min Rain = 0
KSDS 121900Z 24009G15KT 36/13 A2999 RMK A01 T03550131  RH  027%=      5-min Rain = 0
KSDS 121905Z 24011KT 35/13 A2999 RMK A01 T03540132  RH  027%=      5-min Rain = 0
KSDS 121910Z 25010G22KT 35/13 A2999 RMK A01 T03520133  RH  028%=      5-min Rain = 0
KSDS 121915Z 24008KT 36/14 A2999 RMK A01 T03550137  RH  028%=      5-min Rain = 0
KSDS 121920Z 24005G11KT 35/13 A2999 RMK A01 T03510134  RH  028%=      5-min Rain = 0
KSDS 121925Z 25008G14KT 35/13 A2999 RMK A01 T03530132  RH  028%=      5-min Rain = 0
KSDS 121930Z 23011G18KT 36/13 A2999 RMK A01 T03550131  RH  027%=      5-min Rain = 0
KSDS 121935Z 22006G14KT 35/13 A2999 RMK A01 T03500129  RH  027%=      5-min Rain = 0
KSDS 121940Z 22011G16KT 36/13 A2998 RMK A01 T03590129  RH  026%=      5-min Rain = 0
KSDS 121945Z 24007G15KT 35/13 A2998 RMK A01 T03530126  RH  027%=      5-min Rain = 0
KSDS 121950Z 23008G15KT 35/13 A2998 RMK A01 T03540129  RH  027%=      5-min Rain = 0
KSDS 121955Z 22011G17KT 36/13 A2998 RMK A01 T03590130  RH  026%=      5-min Rain = 0
KSDS 122000Z 21010G16KT 36/13 A2998 RMK A01 T03600125  RH  025%=      5-min Rain = 0
KSDS 122005Z 24010G15KT 36/13 A2998 RMK A01 T03630126  RH  025%=      5-min Rain = 0
KSDS 122010Z 23011G16KT 37/13 A2998 RMK A01 T03660126  RH  025%=      5-min Rain = 0
KSDS 122015Z 21008G16KT 36/13 A2997 RMK A01 T03640126  RH  025%=      5-min Rain = 0
KSDS 122020Z 23010G20KT 37/13 A2997 RMK A01 T03690126  RH  024%=      5-min Rain = 0
KSDS 122025Z 23015G20KT 37/12 A2997 RMK A01 T03650121  RH  024%=      5-min Rain = 0
KSDS 122030Z 22005G14KT 36/12 A2997 RMK A01 T03570118  RH  025%=      5-min Rain = 0
KSDS 122035Z 21011G16KT 37/13 A2996 RMK A01 T03660127  RH  025%=      5-min Rain = 0
KSDS 122040Z 22010G16KT 37/13 A2996 RMK A01 T03690127  RH  024%=      5-min Rain = 0
KSDS 122045Z 23009G14KT 37/12 A2996 RMK A01 T03700123  RH  024%=      5-min Rain = 0
KSDS 122050Z 19005KT 36/12 A2996 RMK A01 T03640123  RH  024%=      5-min Rain = 0
KSDS 122055Z 17005G10KT 37/12 A2996 RMK A01 T03660122  RH  024%=      5-min Rain = 0
KSDS 122100Z 21006G15KT 37/12 A2995 RMK A01 T03670124  RH  024%=      5-min Rain = 0
KSDS 122105Z 21009G28KT 37/12 A2995 RMK A01 T03670122  RH  024%=      5-min Rain = 0
KSDS 122110Z 20010KT 37/12 A2995 RMK A01 T03710121  RH  023%=      5-min Rain = 0
KSDS 122115Z 23011G16KT 37/12 A2995 RMK A01 T03700121  RH  023%=      5-min Rain = 0
KSDS 122120Z 22009G15KT 37/12 A2994 RMK A01 T03660116  RH  023%=      5-min Rain = 0
KSDS 122125Z 20011G17KT 37/11 A2994 RMK A01 T03660114  RH  023%=      5-min Rain = 0
KSDS 122130Z 23008G15KT 37/12 A2994 RMK A01 T03660115  RH  023%=      5-min Rain = 0
KSDS 122135Z 25011KT 37/11 A2994 RMK A01 T03700113  RH  022%=      5-min Rain = 0
KSDS 122140Z 23012G18KT 37/11 A2994 RMK A01 T03680113  RH  022%=      5-min Rain = 0
KSDS 122145Z 22011G16KT 37/11 A2994 RMK A01 T03720113  RH  022%=      5-min Rain = 0
KSDS 122150Z 25007G12KT 37/11 A2993 RMK A01 T03670112  RH  022%=      5-min Rain = 0
KSDS 122155Z 22013G18KT 37/11 A2993 RMK A01 T03700110  RH  022%=      5-min Rain = 0
KSDS 122200Z 24012G18KT 37/11 A2993 RMK A01 T03690110  RH  022%=      5-min Rain = 0
KSDS 122205Z 24008G15KT 37/11 A2993 RMK A01 T03670110  RH  022%=      5-min Rain = 0
KSDS 122210Z 23012G18KT 37/11 A2993 RMK A01 T03670107  RH  021%=      5-min Rain = 0
KSDS 122215Z 24012KT 37/11 A2993 RMK A01 T03700109  RH  022%=      5-min Rain = 0
KSDS 122220Z 22011G17KT 37/11 A2993 RMK A01 T03680106  RH  021%=      5-min Rain = 0
KSDS 122225Z 23010KT 37/11 A2993 RMK A01 T03680105  RH  021%=      5-min Rain = 0
KSDS 122230Z 23010KT 37/10 A2993 RMK A01 T03650102  RH  021%=      5-min Rain = 0
KSDS 122235Z 23014KT 37/10 A2992 RMK A01 T03670095  RH  020%=      5-min Rain = 0
KSDS 122240Z 23010G16KT 37/09 A2992 RMK A01 T03650093  RH  020%=      5-min Rain = 0
KSDS 122245Z 24011KT 37/10 A2992 RMK A01 T03650095  RH  020%=      5-min Rain = 0
KSDS 122250Z 23010KT 36/10 A2992 RMK A01 T03640095  RH  020%=      5-min Rain = 0
KSDS 122255Z 21007G14KT 36/10 A2992 RMK A01 T03640099  RH  021%=      5-min Rain = 0
KSDS 122300Z 23011KT 37/10 A2992 RMK A01 T03650098  RH  020%=      5-min Rain = 0
KSDS 122305Z 26010KT 36/10 A2992 RMK A01 T03630099  RH  021%=      5-min Rain = 0
KSDS 122310Z 22006KT 36/10 A2992 RMK A01 T03640102  RH  021%=      5-min Rain = 0
KSDS 122315Z 26008KT 37/10 A2992 RMK A01 T03650101  RH  021%=      5-min Rain = 0
KSDS 122320Z 24007KT 36/10 A2992 RMK A01 T03630102  RH  021%=      5-min Rain = 0
KSDS 122325Z 24006KT 36/10 A2992 RMK A01 T03620102  RH  021%=      5-min Rain = 0
KSDS 122330Z 27007KT 36/10 A2992 RMK A01 T03610102  RH  021%=      5-min Rain = 0
KSDS 122335Z 27005KT 36/10 A2992 RMK A01 T03620103  RH  022%=      5-min Rain = 0
KSDS 122340Z 26005KT 36/10 A2991 RMK A01 T03620104  RH  022%=      5-min Rain = 0
KSDS 122345Z 26004KT 36/11 A2991 RMK A01 T03630105  RH  022%=      5-min Rain = 0
KSDS 122350Z 26004KT 36/10 A2991 RMK A01 T03630104  RH  022%=      5-min Rain = 0
KSDS 122355Z 27003KT 36/10 A2991 RMK A01 T03630103  RH  021%=      5-min Rain = 0
KSDS 130000Z 21004KT 36/11 A2991 RMK A01 T03620107  RH  022%=      5-min Rain = 0
KSDS 130005Z 19004KT 36/11 A2991 RMK A01 T03600107  RH  022%=      5-min Rain = 0
KSDS 130010Z 22004KT 36/11 A2991 RMK A01 T03590105  RH  022%=      5-min Rain = 0
KSDS 130015Z 25006KT 36/11 A2991 RMK A01 T03600110  RH  023%=      5-min Rain = 0
KSDS 130020Z 21005KT 36/11 A2991 RMK A01 T03560110  RH  023%=      5-min Rain = 0
KSDS 130025Z 25006KT 36/11 A2991 RMK A01 T03560110  RH  023%=      5-min Rain = 0
KSDS 130030Z 26005KT 36/11 A2991 RMK A01 T03550107  RH  023%=      5-min Rain = 0
KSDS 130035Z 26004KT 36/11 A2991 RMK A01 T03550111  RH  024%=      5-min Rain = 0
KSDS 130040Z 25005KT 35/11 A2991 RMK A01 T03540111  RH  024%=      5-min Rain = 0
KSDS 130045Z 28005KT 35/11 A2991 RMK A01 T03520113  RH  024%=      5-min Rain = 0
KSDS 130050Z 27004KT 35/11 A2991 RMK A01 T03510114  RH  025%=      5-min Rain = 0
KSDS 130055Z 28006KT 35/11 A2991 RMK A01 T03480114  RH  025%=      5-min Rain = 0
KSDS 130100Z 29009KT 34/11 A2992 RMK A01 T03430111  RH  025%=      5-min Rain = 0
KSDS 130105Z 29008KT 34/11 A2992 RMK A01 T03390112  RH  026%=      5-min Rain = 0
KSDS 130110Z 29008KT 34/11 A2992 RMK A01 T03370112  RH  026%=      5-min Rain = 0
KSDS 130115Z 28008KT 33/11 A2992 RMK A01 T03330113  RH  027%=      5-min Rain = 0
KSDS 130120Z 29008KT 33/11 A2992 RMK A01 T03290112  RH  028%=      5-min Rain = 0
KSDS 130125Z 29008KT 32/11 A2992 RMK A01 T03240111  RH  028%=      5-min Rain = 0
KSDS 130130Z 29008KT 32/11 A2992 RMK A01 T03210111  RH  029%=      5-min Rain = 0
KSDS 130135Z 29007KT 32/11 A2993 RMK A01 T03150113  RH  030%=      5-min Rain = 0
KSDS 130140Z 29007KT 31/11 A2993 RMK A01 T03090114  RH  031%=      5-min Rain = 0
KSDS 130145Z 29006KT 30/12 A2993 RMK A01 T03040115  RH  032%=      5-min Rain = 0
KSDS 130150Z 29004KT 30/11 A2993 RMK A01 T03030114  RH  032%=      5-min Rain = 0
KSDS 130155Z 29004KT 30/11 A2993 RMK A01 T03040114  RH  032%=      5-min Rain = 0
KSDS 130200Z 29004KT 30/11 A2993 RMK A01 T03040114  RH  032%=      5-min Rain = 0
KSDS 130205Z 29004KT 30/11 A2993 RMK A01 T03020114  RH  033%=      5-min Rain = 0
KSDS 130210Z 28004KT 30/12 A2993 RMK A01 T02980115  RH  033%=      5-min Rain = 0
KSDS 130215Z 28005KT 29/12 A2993 RMK A01 T02930116  RH  035%=      5-min Rain = 0
KSDS 130220Z 29006KT 29/12 A2994 RMK A01 T02870117  RH  036%=      5-min Rain = 0
KSDS 130225Z 29006KT 28/12 A2994 RMK A01 T02840118  RH  037%=      5-min Rain = 0
KSDS 130230Z 29007KT 28/12 A2994 RMK A01 T02770120  RH  039%=      5-min Rain = 0
KSDS 130235Z 29008KT 27/12 A2994 RMK A01 T02690123  RH  042%=      5-min Rain = 0
KSDS 130240Z 29008KT 27/12 A2995 RMK A01 T02670124  RH  043%=      5-min Rain = 0
KSDS 130245Z 30008KT 27/13 A2995 RMK A01 T02660125  RH  043%=      5-min Rain = 0
KSDS 130250Z 30007KT 27/13 A2995 RMK A01 T02650125  RH  044%=      5-min Rain = 0
KSDS 130255Z 30006KT 26/13 A2995 RMK A01 T02640125  RH  044%=      5-min Rain = 0
KSDS 130300Z 30005KT 27/13 A2995 RMK A01 T02650125  RH  044%=      5-min Rain = 0
KSDS 130305Z 30005KT 26/13 A2995 RMK A01 T02640126  RH  044%=      5-min Rain = 0
KSDS 130310Z 30005KT 26/13 A2996 RMK A01 T02610126  RH  045%=      5-min Rain = 0
KSDS 130315Z 30006KT 26/13 A2996 RMK A01 T02580126  RH  046%=      5-min Rain = 0
KSDS 130320Z 30007KT 26/13 A2996 RMK A01 T02550128  RH  047%=      5-min Rain = 0
KSDS 130325Z 30007KT 25/13 A2996 RMK A01 T02540128  RH  047%=      5-min Rain = 0
KSDS 130330Z 30006KT 25/13 A2996 RMK A01 T02530129  RH  048%=      5-min Rain = 0
KSDS 130335Z 30006KT 25/13 A2996 RMK A01 T02500130  RH  049%=      5-min Rain = 0
KSDS 130340Z 31005KT 25/13 A2996 RMK A01 T02500129  RH  049%=      5-min Rain = 0
KSDS 130345Z 33005KT 25/13 A2996 RMK A01 T02480129  RH  049%=      5-min Rain = 0
KSDS 130350Z 33006KT 25/13 A2997 RMK A01 T02460129  RH  050%=      5-min Rain = 0
KSDS 130355Z 32006KT 25/13 A2997 RMK A01 T02500128  RH  048%=      5-min Rain = 0
KSDS 130400Z 33005KT 25/13 A2997 RMK A01 T02530128  RH  048%=      5-min Rain = 0
KSDS 130405Z 33006KT 25/13 A2997 RMK A01 T02520128  RH  048%=      5-min Rain = 0
KSDS 130410Z 33007KT 25/13 A2997 RMK A01 T02500129  RH  049%=      5-min Rain = 0
KSDS 130415Z 33008KT 25/13 A2997 RMK A01 T02490131  RH  050%=      5-min Rain = 0
KSDS 130420Z 33007KT 24/13 A2997 RMK A01 T02440132  RH  052%=      5-min Rain = 0
KSDS 130425Z 32007KT 25/13 A2997 RMK A01 T02450132  RH  051%=      5-min Rain = 0
KSDS 130430Z 32006KT 25/13 A2997 RMK A01 T02460134  RH  052%=      5-min Rain = 0
KSDS 130435Z 32007KT 24/13 A2997 RMK A01 T02400134  RH  053%=      5-min Rain = 0
KSDS 130440Z 32008KT 24/13 A2997 RMK A01 T02380134  RH  054%=      5-min Rain = 0
KSDS 130445Z 32007KT 24/14 A2997 RMK A01 T02400135  RH  054%=      5-min Rain = 0
KSDS 130450Z 32006KT 24/14 A2997 RMK A01 T02400135  RH  054%=      5-min Rain = 0
KSDS 130455Z 32006KT 24/14 A2997 RMK A01 T02370135  RH  055%=      5-min Rain = 0

Page generated in 0.009 seconds.